地図

経路データ

SID SEASON NUMBER BASIN SUBBASIN NAME ISO_TIME NATURE LAT LON WMO_WIND WMO_PRES WMO_AGENCY TRACK_TYPE DIST2LAND LANDFALL IFLAG USA_AGENCY USA_ATCF_ID USA_LAT USA_LON USA_RECORD USA_STATUS USA_WIND USA_PRES USA_SSHS USA_R34_NE USA_R34_SE USA_R34_SW USA_R34_NW USA_R50_NE USA_R50_SE USA_R50_SW USA_R50_NW USA_R64_NE USA_R64_SE USA_R64_SW USA_R64_NW USA_POCI USA_ROCI USA_RMW USA_EYE TOKYO_LAT TOKYO_LON TOKYO_GRADE TOKYO_WIND TOKYO_PRES TOKYO_R50_DIR TOKYO_R50_LONG TOKYO_R50_SHORT TOKYO_R30_DIR TOKYO_R30_LONG TOKYO_R30_SHORT TOKYO_LAND CMA_LAT CMA_LON CMA_CAT CMA_WIND CMA_PRES HKO_LAT HKO_LON HKO_CAT HKO_WIND HKO_PRES NEWDELHI_LAT NEWDELHI_LON NEWDELHI_GRADE NEWDELHI_WIND NEWDELHI_PRES NEWDELHI_CI NEWDELHI_DP NEWDELHI_POCI REUNION_LAT REUNION_LON REUNION_TYPE REUNION_WIND REUNION_PRES REUNION_TNUM REUNION_CI REUNION_RMW REUNION_R34_NE REUNION_R34_SE REUNION_R34_SW REUNION_R34_NW REUNION_R50_NE REUNION_R50_SE REUNION_R50_SW REUNION_R50_NW REUNION_R64_NE REUNION_R64_SE REUNION_R64_SW REUNION_R64_NW BOM_LAT BOM_LON BOM_TYPE BOM_WIND BOM_PRES BOM_TNUM BOM_CI BOM_RMW BOM_R34_NE BOM_R34_SE BOM_R34_SW BOM_R34_NW BOM_R50_NE BOM_R50_SE BOM_R50_SW BOM_R50_NW BOM_R64_NE BOM_R64_SE BOM_R64_SW BOM_R64_NW BOM_ROCI BOM_POCI BOM_EYE BOM_POS_METHOD BOM_PRES_METHOD NADI_LAT NADI_LON NADI_CAT NADI_WIND NADI_PRES WELLINGTON_LAT WELLINGTON_LON WELLINGTON_WIND WELLINGTON_PRES DS824_LAT DS824_LON DS824_STAGE DS824_WIND DS824_PRES TD9636_LAT TD9636_LON TD9636_STAGE TD9636_WIND TD9636_PRES TD9635_LAT TD9635_LON TD9635_WIND TD9635_PRES TD9635_ROCI NEUMANN_LAT NEUMANN_LON NEUMANN_CLASS NEUMANN_WIND NEUMANN_PRES MLC_LAT MLC_LON MLC_CLASS MLC_WIND MLC_PRES USA_GUST BOM_GUST BOM_GUST_PER REUNION_GUST REUNION_GUST_PER USA_SEAHGT USA_SEARAD_NE USA_SEARAD_SE USA_SEARAD_SW USA_SEARAD_NW STORM_SPEED STORM_DIR
1927151N11071 1927 25 NI AS NOT_NAMED 1927-05-31 00:00:00 TS 11.2000 71.1000 main 440 436 _________O____ -1 11.2000 71.1000 TC 30 3 331
1927151N11071 1927 25 NI AS NOT_NAMED 1927-05-31 03:00:00 TS 11.3250 71.0267 main 446 438 _________PO___ -1 11.3875 70.9900 TC 30 11.2000 71.1000 1 4 335
1927151N11071 1927 25 NI AS NOT_NAMED 1927-05-31 06:00:00 TS 11.5356 70.9451 main 448 438 _________OP___ -1 11.6000 70.9000 TC 30 11.4391 71.0127 1 5 342
1927151N11071 1927 25 NI AS NOT_NAMED 1927-05-31 09:00:00 TS 11.7739 70.8801 main 438 435 _________PP___ -1 11.8500 70.8425 TC 30 11.6725 70.9303 1 5 347
1927151N11071 1927 25 NI AS NOT_NAMED 1927-05-31 12:00:00 TS 11.9974 70.8288 main 443 439 _________OP___ -1 12.1000 70.8000 TC 30 11.8947 70.8577 1 4 346
1927151N11071 1927 25 NI AS NOT_NAMED 1927-05-31 15:00:00 TS 12.2037 70.7750 main 439 437 _________PO___ -1 12.3075 70.7500 TC 30 12.1000 70.8000 1 4 346
1927151N11071 1927 25 NI AS NOT_NAMED 1927-05-31 18:00:00 TS 12.3934 70.7294 main 445 440 _________OP___ -1 12.5000 70.7000 TC 30 12.2868 70.7589 1 4 349
1927151N11071 1927 25 NI AS NOT_NAMED 1927-05-31 21:00:00 TS 12.5737 70.6935 main 440 436 _________PP___ -1 12.6775 70.6649 TC 30 12.4699 70.7222 1 4 348
1927151N11071 1927 25 NI AS NOT_NAMED 1927-06-01 00:00:00 TS 12.7840 70.6372 main 439 426 _________OP___ -1 12.9000 70.6000 TC 30 12.6681 70.6744 1 5 342
1927151N11071 1927 25 NI AS NOT_NAMED 1927-06-01 03:00:00 TS 13.0675 70.5325 main 429 422 _________PO___ -1 13.2350 70.4651 TC 30 12.9000 70.6000 1 7 339
1927151N11071 1927 25 NI AS NOT_NAMED 1927-06-01 06:00:00 TS 13.4006 70.3915 main 422 417 _________OP___ -1 13.6000 70.3000 TC 30 13.2013 70.4829 1 7 337
1927151N11071 1927 25 NI AS NOT_NAMED 1927-06-01 09:00:00 TS 13.7250 70.2438 main 428 420 _________PP___ -1 13.9150 70.1500 TC 30 13.5350 70.3377 1 7 335
1927151N11071 1927 25 NI AS NOT_NAMED 1927-06-01 12:00:00 TS 14.0381 70.0868 main 426 421 _________OP___ -1 14.2000 70.0000 TC 30 13.8763 70.1735 1 7 333
1927151N11071 1927 25 NI AS NOT_NAMED 1927-06-01 15:00:00 TS 14.3287 69.9287 main 433 425 _________PO___ -1 14.4575 69.8574 TC 30 14.2000 70.0000 1 6 332
1927151N11071 1927 25 NI AS NOT_NAMED 1927-06-01 18:00:00 TS 14.5816 69.7841 main 430 429 _________OP___ -1 14.7000 69.7000 TC 30 14.4632 69.8682 1 6 329
1927151N11071 1927 25 NI AS NOT_NAMED 1927-06-01 21:00:00 TS 14.8210 69.6270 main 439 434 _________PP___ -1 14.9349 69.5298 TC 30 14.7070 69.7242 1 6 325
1927151N11071 1927 25 NI AS NOT_NAMED 1927-06-02 00:00:00 TS 15.0737 69.4215 main 445 441 _________OP___ -1 15.2000 69.3000 TC 30 14.9474 69.5431 1 7 320
1927151N11071 1927 25 NI AS NOT_NAMED 1927-06-02 03:00:00 TS 15.3750 69.1438 main 465 462 _________PO___ -1 15.5500 68.9876 TC 30 15.2000 69.3000 1 9 316
1927151N11071 1927 25 NI AS NOT_NAMED 1927-06-02 06:00:00 TS 15.7051 68.7846 main 489 489 _________OP___ -1 15.9000 68.6000 TC 30 15.5102 68.9692 1 10 310
1927151N11071 1927 25 NI AS NOT_NAMED 1927-06-02 09:00:00 TS 16.0051 68.3666 main 526 526 _________PP___ -1 16.1800 68.1575 TC 30 15.8302 68.5757 1 10 304
1927151N11071 1927 25 NI AS NOT_NAMED 1927-06-02 12:00:00 TS 16.2676 67.9221 main 572 572 _________OP___ -1 16.4000 67.7000 TC 30 16.1351 68.1442 1 10 300
1927151N11071 1927 25 NI AS NOT_NAMED 1927-06-02 15:00:00 TS 16.4824 67.4999 main 584 584 _________PO___ -1 16.5648 67.2998 TC 31 16.4000 67.7000 1 9 295
1927151N11071 1927 25 NI AS NOT_NAMED 1927-06-02 18:00:00 TS 16.6443 67.0968 main 599 590 _________OP___ -1 16.7000 66.9000 TC 32 16.5887 67.2936 1 9 291
1927151N11071 1927 25 NI AS NOT_NAMED 1927-06-02 21:00:00 TS 16.7897 66.6719 main 605 605 _________PP___ -1 16.8424 66.4649 TC 33 16.7369 66.8790 1 9 289
1927151N11071 1927 25 NI AS NOT_NAMED 1927-06-03 00:00:00 TS 16.9334 66.2249 main 630 622 _________OP___ -1 17.0000 66.0000 TC 34 16.8667 66.4499 1 9 289
1927151N11071 1927 25 NI AS NOT_NAMED 1927-06-03 03:00:00 TS 17.1000 65.7538 main 643 643 _________PO___ -1 17.1999 65.5075 TC 36 17.0000 66.0000 2 10 291
1927151N11071 1927 25 NI AS NOT_NAMED 1927-06-03 06:00:00 TS 17.2920 65.2609 main 665 665 _________OP___ -1 17.4000 65.0000 TC 39 17.1839 65.5218 2 10 291
1927151N11071 1927 25 NI AS NOT_NAMED 1927-06-03 09:00:00 TS 17.4686 64.7614 main 686 674 _________PP___ -1 17.5649 64.4999 TC 42 17.3723 65.0228 2 10 289
1927151N11071 1927 25 NI AS NOT_NAMED 1927-06-03 12:00:00 TS 17.6248 64.2562 main 674 619 _________OP___ -1 17.7000 64.0000 TC 45 17.5495 64.5124 2 10 287
1927151N11071 1927 25 NI AS NOT_NAMED 1927-06-03 15:00:00 TS 17.7574 63.7500 main 611 573 _________PO___ -1 17.8149 63.4999 TC 45 17.7000 64.0000 3 10 283
1927151N11071 1927 25 NI AS NOT_NAMED 1927-06-03 18:00:00 TS 17.8581 63.2316 main 565 522 _________OP___ -1 17.9000 63.0000 TC 45 17.8161 63.4633 3 10 280
1927151N11071 1927 25 NI AS NOT_NAMED 1927-06-03 21:00:00 TS 17.9340 62.7012 main 522 472 _________PP___ -1 17.9651 62.4700 TC 45 17.9028 62.9323 3 10 277
1927151N11071 1927 25 NI AS NOT_NAMED 1927-06-04 00:00:00 TS 17.9815 62.2176 main 472 446 _________OP___ -1 18.0000 62.0000 TC 45 17.9631 62.4352 3 8 275
1927151N11071 1927 25 NI AS NOT_NAMED 1927-06-04 03:00:00 TS 18.0037 61.8312 main 436 405 _________PO___ -1 18.0073 61.6625 TC 45 18.0000 62.0000 3 7 273
1927151N11071 1927 25 NI AS NOT_NAMED 1927-06-04 06:00:00 TS 18.0105 61.5260 main 405 385 _________OP___ -1 18.0000 61.4000 TC 45 18.0209 61.6519 3 5 271
1927151N11071 1927 25 NI AS NOT_NAMED 1927-06-04 09:00:00 TS 18.0108 61.2549 main 385 355 _________PP___ -1 17.9999 61.1425 TC 45 18.0217 61.3672 3 5 269
1927151N11071 1927 25 NI AS NOT_NAMED 1927-06-04 12:00:00 TS 18.0059 61.0120 main 355 335 _________OP___ -1 18.0000 60.9000 TC 45 18.0117 61.1239 3 5 269
1927151N11071 1927 25 NI AS NOT_NAMED 1927-06-04 15:00:00 TS 18.0000 60.7713 main 335 305 _________PO___ -1 18.0000 60.6425 TC 45 18.0000 60.9000 3 5 268
1927151N11071 1927 25 NI AS NOT_NAMED 1927-06-04 18:00:00 TS 17.9918 60.5323 main 305 286 _________OP___ -1 18.0000 60.4000 TC 45 17.9835 60.6645 3 4 267
1927151N11071 1927 25 NI AS NOT_NAMED 1927-06-04 21:00:00 TS 17.9811 60.3211 main 286 267 _________PP___ -1 17.9924 60.2000 TC 45 17.9697 60.4423 3 4 269
1927151N11071 1927 25 NI AS NOT_NAMED 1927-06-05 00:00:00 TS 17.9855 60.1119 main 267 248 _________OP___ -1 18.0000 60.0000 TC 45 17.9711 60.2239 3 4 274
1927151N11071 1927 25 NI AS NOT_NAMED 1927-06-05 03:00:00 TS 18.0137 59.8787 main 248 214 _________PO___ -1 18.0275 59.7575 TC 41 18.0000 60.0000 3 5 282
1927151N11071 1927 25 NI AS NOT_NAMED 1927-06-05 06:00:00 TS 18.0815 59.6286 main 214 190 _________OP___ -1 18.1000 59.5000 TC 37 18.0631 59.7572 3 5 291
1927151N11071 1927 25 NI AS NOT_NAMED 1927-06-05 09:00:00 TS 18.1950 59.3788 main 190 157 _________PP___ -1 18.2350 59.2500 TC 33 18.1549 59.5075 3 5 298
1927151N11071 1927 25 NI AS NOT_NAMED 1927-06-05 12:00:00 TS 18.3347 59.1270 main 157 128 _________OP___ -1 18.4000 59.0000 TC 30 18.2693 59.2540 3 6 300
1927151N11071 1927 25 NI AS NOT_NAMED 1927-06-05 15:00:00 TS 18.4750 58.8750 main 128 104 _________PO___ -1 18.5500 58.7500 TC 30 18.4000 59.0000 1 5 301
1927151N11071 1927 25 NI AS NOT_NAMED 1927-06-05 18:00:00 TS 18.6094 58.6417 main 95 71 _________OP___ -1 18.7000 58.5000 TC 30 18.5414 58.7480 1 5 302
1927151N11071 1927 25 NI AS NOT_NAMED 1927-06-05 21:00:00 TS 18.7542 58.3987 main 66 43 _________PP___ -1 18.8501 58.2501 TC 30 18.6902 58.4978 1 5 302
1927151N11071 1927 25 NI AS NOT_NAMED 1927-06-06 00:00:00 TS 18.8960 58.1658 main 43 21 _________OP___ -1 19.0000 58.0000 TC 30 18.8440 58.2488 1 5 303
1927151N11071 1927 25 NI AS NOT_NAMED 1927-06-06 03:00:00 NR 19.0000 58.0000 main 21 __________O___ -1 TC 19.0000 58.0000 1 4 303

IBTrACS Databaseについて

本データベースは、米国NOAAが公開する1842年以降の世界の熱帯低気圧のベストトラックデータアーカイブInternational Best Track Archive for Climate Stewardship (IBTrACS)を、ウェブで閲覧しやすい形式に変換したものです。

最終更新日:2021-12-08